sensor_id;sensor_type;location;lat;lon;timestamp;P1;durP1;ratioP1;P2;durP2;ratioP2
39890;SDS011;25564;53.312;9.790;2024-03-29T00:01:45;419.83;;;388.93;;
39890;SDS011;25564;53.312;9.790;2024-03-29T00:04:15;403.20;;;371.30;;
39890;SDS011;25564;53.312;9.790;2024-03-29T00:06:46;466.70;;;431.43;;
39890;SDS011;25564;53.312;9.790;2024-03-29T00:09:16;445.53;;;410.30;;
39890;SDS011;25564;53.312;9.790;2024-03-29T00:11:47;471.97;;;436.17;;
39890;SDS011;25564;53.312;9.790;2024-03-29T00:14:17;423.23;;;389.43;;
39890;SDS011;25564;53.312;9.790;2024-03-29T00:16:48;386.17;;;356.87;;
39890;SDS011;25564;53.312;9.790;2024-03-29T00:19:18;430.97;;;397.33;;
39890;SDS011;25564;53.312;9.790;2024-03-29T00:21:49;403.37;;;373.73;;
39890;SDS011;25564;53.312;9.790;2024-03-29T00:24:19;441.47;;;407.63;;
39890;SDS011;25564;53.312;9.790;2024-03-29T00:26:49;428.60;;;396.70;;
39890;SDS011;25564;53.312;9.790;2024-03-29T00:29:20;411.10;;;378.93;;
39890;SDS011;25564;53.312;9.790;2024-03-29T00:31:50;437.67;;;404.03;;
39890;SDS011;25564;53.312;9.790;2024-03-29T00:34:21;383.03;;;354.83;;
39890;SDS011;25564;53.312;9.790;2024-03-29T00:36:51;414.03;;;382.77;;
39890;SDS011;25564;53.312;9.790;2024-03-29T00:39:23;411.37;;;380.00;;
39890;SDS011;25564;53.312;9.790;2024-03-29T00:41:53;404.90;;;374.17;;
39890;SDS011;25564;53.312;9.790;2024-03-29T00:44:23;355.10;;;328.43;;
39890;SDS011;25564;53.312;9.790;2024-03-29T00:46:54;353.93;;;328.73;;
39890;SDS011;25564;53.312;9.790;2024-03-29T00:49:24;398.93;;;369.07;;
39890;SDS011;25564;53.312;9.790;2024-03-29T00:51:55;374.67;;;346.93;;
39890;SDS011;25564;53.312;9.790;2024-03-29T00:54:26;415.77;;;380.67;;
39890;SDS011;25564;53.312;9.790;2024-03-29T00:56:56;424.00;;;393.93;;
39890;SDS011;25564;53.312;9.790;2024-03-29T00:59:27;378.97;;;349.73;;
39890;SDS011;25564;53.312;9.790;2024-03-29T01:01:57;351.20;;;325.27;;
39890;SDS011;25564;53.312;9.790;2024-03-29T01:04:27;398.23;;;368.97;;
39890;SDS011;25564;53.312;9.790;2024-03-29T01:06:58;358.70;;;332.70;;
39890;SDS011;25564;53.312;9.790;2024-03-29T01:09:28;317.37;;;294.27;;
39890;SDS011;25564;53.312;9.790;2024-03-29T01:11:59;378.23;;;349.70;;
39890;SDS011;25564;53.312;9.790;2024-03-29T01:14:30;352.67;;;327.13;;
39890;SDS011;25564;53.312;9.790;2024-03-29T01:17:00;339.33;;;314.83;;
39890;SDS011;25564;53.312;9.790;2024-03-29T01:19:31;348.37;;;322.60;;
39890;SDS011;25564;53.312;9.790;2024-03-29T01:22:01;336.70;;;314.80;;
39890;SDS011;25564;53.312;9.790;2024-03-29T01:24:32;353.10;;;323.83;;
39890;SDS011;25564;53.312;9.790;2024-03-29T01:27:03;339.77;;;316.23;;
39890;SDS011;25564;53.312;9.790;2024-03-29T01:29:36;320.40;;;298.77;;
39890;SDS011;25564;53.312;9.790;2024-03-29T01:32:07;389.23;;;362.13;;
39890;SDS011;25564;53.312;9.790;2024-03-29T01:34:38;373.63;;;346.83;;
39890;SDS011;25564;53.312;9.790;2024-03-29T01:37:08;356.83;;;332.37;;
39890;SDS011;25564;53.312;9.790;2024-03-29T01:39:39;369.90;;;342.37;;
39890;SDS011;25564;53.312;9.790;2024-03-29T01:42:09;341.17;;;318.37;;
39890;SDS011;25564;53.312;9.790;2024-03-29T01:44:39;322.33;;;300.23;;
39890;SDS011;25564;53.312;9.790;2024-03-29T01:47:10;340.80;;;316.37;;
39890;SDS011;25564;53.312;9.790;2024-03-29T01:49:41;351.37;;;325.83;;
39890;SDS011;25564;53.312;9.790;2024-03-29T01:52:12;310.60;;;288.73;;
39890;SDS011;25564;53.312;9.790;2024-03-29T01:54:46;287.20;;;266.50;;
39890;SDS011;25564;53.312;9.790;2024-03-29T01:57:18;342.50;;;316.70;;
39890;SDS011;25564;53.312;9.790;2024-03-29T01:59:49;355.03;;;329.83;;
39890;SDS011;25564;53.312;9.790;2024-03-29T02:02:20;302.63;;;281.30;;
39890;SDS011;25564;53.312;9.790;2024-03-29T02:04:51;359.30;;;335.50;;
39890;SDS011;25564;53.312;9.790;2024-03-29T02:07:22;280.43;;;261.77;;
39890;SDS011;25564;53.312;9.790;2024-03-29T02:09:53;341.43;;;317.70;;
39890;SDS011;25564;53.312;9.790;2024-03-29T02:12:23;326.17;;;301.87;;
39890;SDS011;25564;53.312;9.790;2024-03-29T02:14:54;353.97;;;329.43;;
39890;SDS011;25564;53.312;9.790;2024-03-29T02:17:24;330.27;;;307.23;;
39890;SDS011;25564;53.312;9.790;2024-03-29T02:19:55;317.20;;;295.23;;
39890;SDS011;25564;53.312;9.790;2024-03-29T02:22:25;331.80;;;308.13;;
39890;SDS011;25564;53.312;9.790;2024-03-29T02:24:57;339.77;;;314.17;;
39890;SDS011;25564;53.312;9.790;2024-03-29T02:27:28;323.17;;;301.37;;
39890;SDS011;25564;53.312;9.790;2024-03-29T02:29:59;347.03;;;321.90;;
39890;SDS011;25564;53.312;9.790;2024-03-29T02:32:29;331.07;;;306.47;;
39890;SDS011;25564;53.312;9.790;2024-03-29T02:35:00;349.43;;;325.03;;
39890;SDS011;25564;53.312;9.790;2024-03-29T02:37:30;307.47;;;285.63;;
39890;SDS011;25564;53.312;9.790;2024-03-29T02:40:01;287.40;;;265.67;;
39890;SDS011;25564;53.312;9.790;2024-03-29T02:42:32;284.50;;;265.27;;
39890;SDS011;25564;53.312;9.790;2024-03-29T02:45:03;287.33;;;267.43;;
39890;SDS011;25564;53.312;9.790;2024-03-29T02:47:34;338.43;;;314.57;;
39890;SDS011;25564;53.312;9.790;2024-03-29T02:50:05;322.10;;;299.00;;
39890;SDS011;25564;53.312;9.790;2024-03-29T02:52:36;311.80;;;289.43;;
39890;SDS011;25564;53.312;9.790;2024-03-29T02:55:07;327.23;;;304.13;;
39890;SDS011;25564;53.312;9.790;2024-03-29T02:57:37;286.73;;;266.53;;
39890;SDS011;25564;53.312;9.790;2024-03-29T03:00:09;289.23;;;269.07;;
39890;SDS011;25564;53.312;9.790;2024-03-29T03:02:41;322.00;;;300.60;;
39890;SDS011;25564;53.312;9.790;2024-03-29T03:05:11;378.80;;;351.17;;
39890;SDS011;25564;53.312;9.790;2024-03-29T03:07:42;294.87;;;274.27;;
39890;SDS011;25564;53.312;9.790;2024-03-29T03:10:31;318.30;;;296.90;;
39890;SDS011;25564;53.312;9.790;2024-03-29T03:13:20;267.57;;;248.43;;
39890;SDS011;25564;53.312;9.790;2024-03-29T03:15:50;326.37;;;305.53;;
39890;SDS011;25564;53.312;9.790;2024-03-29T03:18:21;311.33;;;288.07;;
39890;SDS011;25564;53.312;9.790;2024-03-29T03:20:55;296.63;;;275.60;;
39890;SDS011;25564;53.312;9.790;2024-03-29T03:23:28;255.82;;;237.85;;
39890;SDS011;25564;53.312;9.790;2024-03-29T03:26:02;292.47;;;273.60;;
39890;SDS011;25564;53.312;9.790;2024-03-29T03:28:37;295.67;;;275.13;;
39890;SDS011;25564;53.312;9.790;2024-03-29T03:31:07;266.53;;;248.63;;
39890;SDS011;25564;53.312;9.790;2024-03-29T03:33:39;353.17;;;328.20;;
39890;SDS011;25564;53.312;9.790;2024-03-29T03:36:09;303.63;;;282.37;;
39890;SDS011;25564;53.312;9.790;2024-03-29T03:38:40;313.40;;;293.93;;
39890;SDS011;25564;53.312;9.790;2024-03-29T03:41:11;321.53;;;299.83;;
39890;SDS011;25564;53.312;9.790;2024-03-29T03:43:42;275.70;;;256.20;;
39890;SDS011;25564;53.312;9.790;2024-03-29T03:46:13;294.70;;;273.33;;
39890;SDS011;25564;53.312;9.790;2024-03-29T03:48:43;318.33;;;296.20;;
39890;SDS011;25564;53.312;9.790;2024-03-29T03:51:14;268.53;;;249.67;;
39890;SDS011;25564;53.312;9.790;2024-03-29T03:53:45;280.37;;;260.37;;
39890;SDS011;25564;53.312;9.790;2024-03-29T03:56:15;305.83;;;283.53;;
39890;SDS011;25564;53.312;9.790;2024-03-29T03:58:46;299.20;;;278.00;;
39890;SDS011;25564;53.312;9.790;2024-03-29T04:01:16;299.73;;;279.67;;
39890;SDS011;25564;53.312;9.790;2024-03-29T04:03:47;320.00;;;296.83;;
39890;SDS011;25564;53.312;9.790;2024-03-29T04:06:17;300.67;;;280.63;;
39890;SDS011;25564;53.312;9.790;2024-03-29T04:08:48;312.53;;;290.40;;
39890;SDS011;25564;53.312;9.790;2024-03-29T04:11:18;303.90;;;282.60;;
39890;SDS011;25564;53.312;9.790;2024-03-29T04:13:49;339.63;;;317.20;;
39890;SDS011;25564;53.312;9.790;2024-03-29T04:16:19;302.90;;;280.50;;
39890;SDS011;25564;53.312;9.790;2024-03-29T04:18:49;327.37;;;303.10;;
39890;SDS011;25564;53.312;9.790;2024-03-29T04:21:20;318.50;;;297.07;;
39890;SDS011;25564;53.312;9.790;2024-03-29T04:23:50;313.03;;;290.57;;
39890;SDS011;25564;53.312;9.790;2024-03-29T04:26:22;317.70;;;296.73;;
39890;SDS011;25564;53.312;9.790;2024-03-29T04:28:52;305.73;;;283.77;;
39890;SDS011;25564;53.312;9.790;2024-03-29T04:31:23;319.47;;;297.67;;
39890;SDS011;25564;53.312;9.790;2024-03-29T04:33:53;288.80;;;269.37;;
39890;SDS011;25564;53.312;9.790;2024-03-29T04:36:24;322.33;;;300.53;;
39890;SDS011;25564;53.312;9.790;2024-03-29T04:38:54;322.77;;;298.67;;
39890;SDS011;25564;53.312;9.790;2024-03-29T04:41:25;378.47;;;350.40;;
39890;SDS011;25564;53.312;9.790;2024-03-29T04:43:55;309.97;;;287.13;;
39890;SDS011;25564;53.312;9.790;2024-03-29T04:46:26;337.47;;;313.03;;
39890;SDS011;25564;53.312;9.790;2024-03-29T04:48:59;382.37;;;353.57;;
39890;SDS011;25564;53.312;9.790;2024-03-29T04:51:30;376.57;;;349.83;;
39890;SDS011;25564;53.312;9.790;2024-03-29T04:54:00;346.10;;;319.93;;
39890;SDS011;25564;53.312;9.790;2024-03-29T04:56:31;345.57;;;320.63;;
39890;SDS011;25564;53.312;9.790;2024-03-29T04:59:02;332.93;;;309.20;;
39890;SDS011;25564;53.312;9.790;2024-03-29T05:01:33;334.53;;;311.20;;
39890;SDS011;25564;53.312;9.790;2024-03-29T05:04:05;332.77;;;307.77;;
39890;SDS011;25564;53.312;9.790;2024-03-29T05:06:36;376.17;;;348.00;;
39890;SDS011;25564;53.312;9.790;2024-03-29T05:09:06;348.10;;;322.67;;
39890;SDS011;25564;53.312;9.790;2024-03-29T05:11:37;417.63;;;386.50;;
39890;SDS011;25564;53.312;9.790;2024-03-29T05:14:07;358.63;;;332.67;;
39890;SDS011;25564;53.312;9.790;2024-03-29T05:16:38;340.20;;;315.47;;
39890;SDS011;25564;53.312;9.790;2024-03-29T05:19:08;362.77;;;335.17;;
39890;SDS011;25564;53.312;9.790;2024-03-29T05:21:39;386.67;;;358.80;;
39890;SDS011;25564;53.312;9.790;2024-03-29T05:24:10;302.07;;;279.83;;
39890;SDS011;25564;53.312;9.790;2024-03-29T05:26:41;414.27;;;384.33;;
39890;SDS011;25564;53.312;9.790;2024-03-29T05:29:11;375.67;;;348.13;;
39890;SDS011;25564;53.312;9.790;2024-03-29T05:31:41;373.70;;;345.97;;
39890;SDS011;25564;53.312;9.790;2024-03-29T05:34:13;378.37;;;347.97;;
39890;SDS011;25564;53.312;9.790;2024-03-29T05:36:44;404.50;;;372.17;;
39890;SDS011;25564;53.312;9.790;2024-03-29T05:39:15;381.13;;;350.90;;
39890;SDS011;25564;53.312;9.790;2024-03-29T05:41:46;379.27;;;351.93;;
39890;SDS011;25564;53.312;9.790;2024-03-29T05:44:16;425.70;;;393.33;;
39890;SDS011;25564;53.312;9.790;2024-03-29T05:46:47;380.00;;;351.47;;
39890;SDS011;25564;53.312;9.790;2024-03-29T05:49:19;364.40;;;337.37;;
39890;SDS011;25564;53.312;9.790;2024-03-29T05:51:49;397.53;;;367.63;;
39890;SDS011;25564;53.312;9.790;2024-03-29T05:54:22;397.30;;;367.97;;
39890;SDS011;25564;53.312;9.790;2024-03-29T05:56:53;396.93;;;365.77;;
39890;SDS011;25564;53.312;9.790;2024-03-29T05:59:24;403.47;;;371.17;;
39890;SDS011;25564;53.312;9.790;2024-03-29T06:01:55;406.30;;;374.73;;
39890;SDS011;25564;53.312;9.790;2024-03-29T06:04:25;416.67;;;383.03;;
39890;SDS011;25564;53.312;9.790;2024-03-29T06:07:07;419.60;;;387.10;;
39890;SDS011;25564;53.312;9.790;2024-03-29T06:09:38;528.27;;;483.53;;
39890;SDS011;25564;53.312;9.790;2024-03-29T06:12:08;429.33;;;395.60;;
39890;SDS011;25564;53.312;9.790;2024-03-29T06:14:41;457.20;;;421.50;;
39890;SDS011;25564;53.312;9.790;2024-03-29T06:17:31;423.63;;;389.87;;
39890;SDS011;25564;53.312;9.790;2024-03-29T06:20:01;389.77;;;359.23;;
39890;SDS011;25564;53.312;9.790;2024-03-29T06:22:33;435.63;;;402.60;;
39890;SDS011;25564;53.312;9.790;2024-03-29T06:25:04;486.70;;;447.07;;
39890;SDS011;25564;53.312;9.790;2024-03-29T06:27:35;469.67;;;432.40;;
39890;SDS011;25564;53.312;9.790;2024-03-29T06:30:08;455.37;;;420.37;;
39890;SDS011;25564;53.312;9.790;2024-03-29T06:32:38;458.43;;;422.00;;
39890;SDS011;25564;53.312;9.790;2024-03-29T06:35:09;476.07;;;437.57;;
39890;SDS011;25564;53.312;9.790;2024-03-29T06:37:39;510.43;;;470.17;;
39890;SDS011;25564;53.312;9.790;2024-03-29T06:40:10;473.23;;;435.07;;
39890;SDS011;25564;53.312;9.790;2024-03-29T06:42:41;501.57;;;461.17;;
39890;SDS011;25564;53.312;9.790;2024-03-29T06:45:11;526.93;;;486.07;;
39890;SDS011;25564;53.312;9.790;2024-03-29T06:47:42;442.10;;;407.47;;
39890;SDS011;25564;53.312;9.790;2024-03-29T06:50:12;469.87;;;431.73;;
39890;SDS011;25564;53.312;9.790;2024-03-29T06:52:43;468.93;;;430.90;;
39890;SDS011;25564;53.312;9.790;2024-03-29T06:55:13;486.73;;;449.10;;
39890;SDS011;25564;53.312;9.790;2024-03-29T06:57:44;452.53;;;415.17;;
39890;SDS011;25564;53.312;9.790;2024-03-29T07:00:14;516.80;;;476.30;;
39890;SDS011;25564;53.312;9.790;2024-03-29T07:02:45;487.73;;;447.37;;
39890;SDS011;25564;53.312;9.790;2024-03-29T07:05:16;487.80;;;448.27;;
39890;SDS011;25564;53.312;9.790;2024-03-29T07:07:46;496.20;;;455.07;;
39890;SDS011;25564;53.312;9.790;2024-03-29T07:10:17;551.27;;;507.63;;
39890;SDS011;25564;53.312;9.790;2024-03-29T07:12:47;535.53;;;493.17;;
39890;SDS011;25564;53.312;9.790;2024-03-29T07:15:18;518.53;;;477.07;;
39890;SDS011;25564;53.312;9.790;2024-03-29T07:17:48;502.13;;;462.27;;
39890;SDS011;25564;53.312;9.790;2024-03-29T07:20:20;497.17;;;455.97;;
39890;SDS011;25564;53.312;9.790;2024-03-29T07:22:51;518.50;;;476.23;;
39890;SDS011;25564;53.312;9.790;2024-03-29T07:25:21;570.83;;;525.33;;
39890;SDS011;25564;53.312;9.790;2024-03-29T07:27:52;561.70;;;513.87;;
39890;SDS011;25564;53.312;9.790;2024-03-29T07:30:23;520.37;;;477.17;;
39890;SDS011;25564;53.312;9.790;2024-03-29T07:32:53;554.60;;;506.20;;
39890;SDS011;25564;53.312;9.790;2024-03-29T07:35:24;551.20;;;505.27;;
39890;SDS011;25564;53.312;9.790;2024-03-29T07:37:54;530.80;;;488.33;;
39890;SDS011;25564;53.312;9.790;2024-03-29T07:40:25;507.67;;;464.33;;
39890;SDS011;25564;53.312;9.790;2024-03-29T07:42:55;504.27;;;458.87;;
39890;SDS011;25564;53.312;9.790;2024-03-29T07:45:26;564.13;;;517.33;;
39890;SDS011;25564;53.312;9.790;2024-03-29T07:47:57;538.87;;;493.17;;
39890;SDS011;25564;53.312;9.790;2024-03-29T07:50:27;561.03;;;515.80;;
39890;SDS011;25564;53.312;9.790;2024-03-29T07:52:58;506.83;;;461.97;;
39890;SDS011;25564;53.312;9.790;2024-03-29T07:55:29;576.47;;;528.97;;
39890;SDS011;25564;53.312;9.790;2024-03-29T07:58:00;535.13;;;489.10;;
39890;SDS011;25564;53.312;9.790;2024-03-29T08:00:31;533.83;;;487.80;;
39890;SDS011;25564;53.312;9.790;2024-03-29T08:03:02;506.60;;;464.90;;
39890;SDS011;25564;53.312;9.790;2024-03-29T08:05:34;569.73;;;522.60;;
39890;SDS011;25564;53.312;9.790;2024-03-29T08:08:04;462.20;;;419.60;;
39890;SDS011;25564;53.312;9.790;2024-03-29T08:10:35;489.03;;;446.97;;
39890;SDS011;25564;53.312;9.790;2024-03-29T08:13:07;467.80;;;425.57;;
39890;SDS011;25564;53.312;9.790;2024-03-29T08:15:37;472.83;;;431.27;;
39890;SDS011;25564;53.312;9.790;2024-03-29T08:18:08;543.73;;;494.10;;
39890;SDS011;25564;53.312;9.790;2024-03-29T08:20:38;488.77;;;443.00;;
39890;SDS011;25564;53.312;9.790;2024-03-29T08:23:09;462.73;;;421.77;;
39890;SDS011;25564;53.312;9.790;2024-03-29T08:25:39;427.13;;;388.83;;
39890;SDS011;25564;53.312;9.790;2024-03-29T08:28:10;462.13;;;419.57;;
39890;SDS011;25564;53.312;9.790;2024-03-29T08:30:41;484.10;;;439.50;;
39890;SDS011;25564;53.312;9.790;2024-03-29T08:33:12;432.57;;;394.33;;
39890;SDS011;25564;53.312;9.790;2024-03-29T08:35:42;438.33;;;399.67;;
39890;SDS011;25564;53.312;9.790;2024-03-29T08:38:13;545.40;;;495.97;;
39890;SDS011;25564;53.312;9.790;2024-03-29T08:40:44;415.70;;;377.57;;
39890;SDS011;25564;53.312;9.790;2024-03-29T08:43:19;441.57;;;401.00;;
39890;SDS011;25564;53.312;9.790;2024-03-29T08:45:49;438.73;;;398.83;;
39890;SDS011;25564;53.312;9.790;2024-03-29T08:48:20;446.40;;;405.70;;
39890;SDS011;25564;53.312;9.790;2024-03-29T08:50:50;516.60;;;470.37;;
39890;SDS011;25564;53.312;9.790;2024-03-29T08:53:21;422.17;;;383.97;;
39890;SDS011;25564;53.312;9.790;2024-03-29T08:55:55;478.93;;;436.17;;
39890;SDS011;25564;53.312;9.790;2024-03-29T08:58:26;543.60;;;495.43;;
39890;SDS011;25564;53.312;9.790;2024-03-29T09:00:57;508.20;;;460.47;;
39890;SDS011;25564;53.312;9.790;2024-03-29T09:03:27;510.03;;;463.47;;
39890;SDS011;25564;53.312;9.790;2024-03-29T09:05:58;493.30;;;446.17;;
39890;SDS011;25564;53.312;9.790;2024-03-29T09:08:28;548.50;;;498.73;;
39890;SDS011;25564;53.312;9.790;2024-03-29T09:10:59;476.97;;;432.30;;
39890;SDS011;25564;53.312;9.790;2024-03-29T09:13:31;514.37;;;468.43;;
39890;SDS011;25564;53.312;9.790;2024-03-29T09:16:02;473.57;;;428.93;;
39890;SDS011;25564;53.312;9.790;2024-03-29T09:18:33;496.13;;;446.93;;
39890;SDS011;25564;53.312;9.790;2024-03-29T09:21:04;431.77;;;390.53;;
39890;SDS011;25564;53.312;9.790;2024-03-29T09:23:34;503.20;;;457.37;;
39890;SDS011;25564;53.312;9.790;2024-03-29T09:26:06;414.37;;;376.43;;
39890;SDS011;25564;53.312;9.790;2024-03-29T09:28:36;478.20;;;435.07;;
39890;SDS011;25564;53.312;9.790;2024-03-29T09:31:07;414.13;;;375.53;;
39890;SDS011;25564;53.312;9.790;2024-03-29T09:33:37;444.57;;;402.57;;
39890;SDS011;25564;53.312;9.790;2024-03-29T09:36:08;506.83;;;462.17;;
39890;SDS011;25564;53.312;9.790;2024-03-29T09:38:41;457.90;;;415.50;;
39890;SDS011;25564;53.312;9.790;2024-03-29T09:41:14;407.80;;;371.07;;
39890;SDS011;25564;53.312;9.790;2024-03-29T09:43:46;452.83;;;410.23;;
39890;SDS011;25564;53.312;9.790;2024-03-29T09:46:17;477.57;;;429.53;;
39890;SDS011;25564;53.312;9.790;2024-03-29T09:48:48;465.07;;;419.40;;
39890;SDS011;25564;53.312;9.790;2024-03-29T09:51:21;476.10;;;427.47;;
39890;SDS011;25564;53.312;9.790;2024-03-29T09:53:51;387.20;;;351.40;;
39890;SDS011;25564;53.312;9.790;2024-03-29T09:56:22;529.97;;;478.00;;
39890;SDS011;25564;53.312;9.790;2024-03-29T09:58:52;489.57;;;441.63;;
39890;SDS011;25564;53.312;9.790;2024-03-29T10:01:23;482.47;;;440.23;;
39890;SDS011;25564;53.312;9.790;2024-03-29T10:03:54;485.83;;;441.83;;
39890;SDS011;25564;53.312;9.790;2024-03-29T10:06:28;538.77;;;490.70;;
39890;SDS011;25564;53.312;9.790;2024-03-29T10:08:59;446.47;;;403.57;;
39890;SDS011;25564;53.312;9.790;2024-03-29T10:11:30;496.73;;;450.87;;
39890;SDS011;25564;53.312;9.790;2024-03-29T10:14:01;488.80;;;443.03;;
39890;SDS011;25564;53.312;9.790;2024-03-29T10:16:33;475.37;;;429.83;;
39890;SDS011;25564;53.312;9.790;2024-03-29T10:19:04;499.87;;;454.63;;
39890;SDS011;25564;53.312;9.790;2024-03-29T10:21:36;465.70;;;421.67;;
39890;SDS011;25564;53.312;9.790;2024-03-29T10:24:13;488.60;;;442.23;;
39890;SDS011;25564;53.312;9.790;2024-03-29T10:46:53;5.88;;;3.38;;
39890;SDS011;25564;53.312;9.790;2024-03-29T10:49:29;2.53;;;1.35;;
39890;SDS011;25564;53.312;9.790;2024-03-29T10:52:02;2.05;;;1.58;;
39890;SDS011;25564;53.312;9.790;2024-03-29T10:54:35;2.55;;;1.50;;
39890;SDS011;25564;53.312;9.790;2024-03-29T10:57:20;5.10;;;4.00;;
39890;SDS011;25564;53.312;9.790;2024-03-29T11:00:03;3.67;;;2.42;;
39890;SDS011;25564;53.312;9.790;2024-03-29T11:05:55;2.93;;;1.23;;
39890;SDS011;25564;53.312;9.790;2024-03-29T11:08:33;5.07;;;1.50;;
39890;SDS011;25564;53.312;9.790;2024-03-29T11:11:08;2.30;;;1.08;;
39890;SDS011;25564;53.312;9.790;2024-03-29T11:13:52;2.73;;;0.93;;
39890;SDS011;25564;53.312;9.790;2024-03-29T11:16:29;1.13;;;0.70;;
39890;SDS011;25564;53.312;9.790;2024-03-29T11:19:00;1.90;;;0.90;;
39890;SDS011;25564;53.312;9.790;2024-03-29T11:21:35;2.37;;;0.87;;
39890;SDS011;25564;53.312;9.790;2024-03-29T11:24:05;1.47;;;0.80;;
39890;SDS011;25564;53.312;9.790;2024-03-29T11:26:37;2.93;;;0.90;;
39890;SDS011;25564;53.312;9.790;2024-03-29T11:29:17;1.73;;;0.83;;
39890;SDS011;25564;53.312;9.790;2024-03-29T11:31:58;3.67;;;0.73;;
39890;SDS011;25564;53.312;9.790;2024-03-29T11:34:32;2.47;;;0.90;;
39890;SDS011;25564;53.312;9.790;2024-03-29T11:37:06;3.33;;;1.00;;
39890;SDS011;25564;53.312;9.790;2024-03-29T11:39:41;2.93;;;0.70;;
39890;SDS011;25564;53.312;9.790;2024-03-29T11:42:17;3.07;;;1.23;;
39890;SDS011;25564;53.312;9.790;2024-03-29T11:44:48;2.20;;;1.00;;
39890;SDS011;25564;53.312;9.790;2024-03-29T11:47:19;2.20;;;0.97;;
39890;SDS011;25564;53.312;9.790;2024-03-29T11:49:55;1.50;;;0.80;;
39890;SDS011;25564;53.312;9.790;2024-03-29T11:52:26;3.83;;;1.20;;
39890;SDS011;25564;53.312;9.790;2024-03-29T11:54:57;4.37;;;1.67;;
39890;SDS011;25564;53.312;9.790;2024-03-29T11:57:29;3.13;;;0.93;;
39890;SDS011;25564;53.312;9.790;2024-03-29T12:00:00;2.87;;;1.20;;
39890;SDS011;25564;53.312;9.790;2024-03-29T12:02:30;2.43;;;0.83;;
39890;SDS011;25564;53.312;9.790;2024-03-29T12:05:07;3.67;;;1.10;;
39890;SDS011;25564;53.312;9.790;2024-03-29T12:07:39;1.43;;;0.80;;
39890;SDS011;25564;53.312;9.790;2024-03-29T12:10:09;3.33;;;1.13;;
39890;SDS011;25564;53.312;9.790;2024-03-29T12:12:40;2.07;;;0.90;;
39890;SDS011;25564;53.312;9.790;2024-03-29T12:15:12;1.27;;;0.87;;
39890;SDS011;25564;53.312;9.790;2024-03-29T12:17:52;1.50;;;0.73;;
39890;SDS011;25564;53.312;9.790;2024-03-29T12:20:23;1.93;;;0.90;;
39890;SDS011;25564;53.312;9.790;2024-03-29T12:22:54;1.30;;;0.80;;
39890;SDS011;25564;53.312;9.790;2024-03-29T12:25:25;1.50;;;0.80;;
39890;SDS011;25564;53.312;9.790;2024-03-29T12:27:58;1.40;;;0.80;;
39890;SDS011;25564;53.312;9.790;2024-03-29T12:30:31;2.13;;;0.97;;
39890;SDS011;25564;53.312;9.790;2024-03-29T12:33:06;1.20;;;0.70;;
39890;SDS011;25564;53.312;9.790;2024-03-29T12:35:39;2.28;;;0.90;;
39890;SDS011;25564;53.312;9.790;2024-03-29T12:38:12;2.40;;;1.00;;
39890;SDS011;25564;53.312;9.790;2024-03-29T12:40:44;1.80;;;0.67;;
39890;SDS011;25564;53.312;9.790;2024-03-29T12:43:21;2.60;;;1.20;;
39890;SDS011;25564;53.312;9.790;2024-03-29T12:45:53;2.80;;;1.03;;
39890;SDS011;25564;53.312;9.790;2024-03-29T12:48:23;1.83;;;0.90;;
39890;SDS011;25564;53.312;9.790;2024-03-29T12:50:54;2.37;;;0.87;;
39890;SDS011;25564;53.312;9.790;2024-03-29T12:53:26;1.53;;;0.70;;
39890;SDS011;25564;53.312;9.790;2024-03-29T12:55:58;2.37;;;0.83;;
39890;SDS011;25564;53.312;9.790;2024-03-29T12:58:29;1.67;;;1.10;;
39890;SDS011;25564;53.312;9.790;2024-03-29T13:00:59;1.30;;;0.80;;
39890;SDS011;25564;53.312;9.790;2024-03-29T13:03:29;2.97;;;1.60;;
39890;SDS011;25564;53.312;9.790;2024-03-29T13:06:00;2.03;;;1.10;;
39890;SDS011;25564;53.312;9.790;2024-03-29T13:08:31;3.23;;;1.40;;
39890;SDS011;25564;53.312;9.790;2024-03-29T13:11:02;3.50;;;1.20;;
39890;SDS011;25564;53.312;9.790;2024-03-29T13:13:32;3.03;;;0.73;;
39890;SDS011;25564;53.312;9.790;2024-03-29T13:16:03;2.83;;;1.27;;
39890;SDS011;25564;53.312;9.790;2024-03-29T13:18:34;3.17;;;1.10;;
39890;SDS011;25564;53.312;9.790;2024-03-29T13:21:05;3.10;;;1.07;;
39890;SDS011;25564;53.312;9.790;2024-03-29T13:23:36;1.77;;;0.90;;
39890;SDS011;25564;53.312;9.790;2024-03-29T13:26:07;1.47;;;0.87;;
39890;SDS011;25564;53.312;9.790;2024-03-29T13:28:39;1.87;;;0.80;;
39890;SDS011;25564;53.312;9.790;2024-03-29T13:31:09;2.17;;;0.93;;
39890;SDS011;25564;53.312;9.790;2024-03-29T13:33:41;1.97;;;0.80;;
39890;SDS011;25564;53.312;9.790;2024-03-29T13:36:11;1.90;;;0.50;;
39890;SDS011;25564;53.312;9.790;2024-03-29T13:38:42;1.10;;;0.80;;
39890;SDS011;25564;53.312;9.790;2024-03-29T13:41:14;1.20;;;0.73;;
39890;SDS011;25564;53.312;9.790;2024-03-29T13:43:47;2.07;;;1.00;;
39890;SDS011;25564;53.312;9.790;2024-03-29T13:46:17;1.37;;;0.80;;
39890;SDS011;25564;53.312;9.790;2024-03-29T13:48:48;2.17;;;0.70;;
39890;SDS011;25564;53.312;9.790;2024-03-29T13:51:18;1.57;;;0.70;;
39890;SDS011;25564;53.312;9.790;2024-03-29T13:53:49;1.13;;;0.70;;
39890;SDS011;25564;53.312;9.790;2024-03-29T13:56:19;0.63;;;0.50;;
39890;SDS011;25564;53.312;9.790;2024-03-29T13:58:51;0.73;;;0.60;;
39890;SDS011;25564;53.312;9.790;2024-03-29T14:01:22;0.80;;;0.43;;
39890;SDS011;25564;53.312;9.790;2024-03-29T14:03:54;1.00;;;0.50;;
39890;SDS011;25564;53.312;9.790;2024-03-29T14:06:24;2.13;;;0.73;;
39890;SDS011;25564;53.312;9.790;2024-03-29T14:08:55;1.53;;;0.70;;
39890;SDS011;25564;53.312;9.790;2024-03-29T14:11:25;1.80;;;0.80;;
39890;SDS011;25564;53.312;9.790;2024-03-29T14:13:56;3.53;;;1.27;;
39890;SDS011;25564;53.312;9.790;2024-03-29T14:16:26;1.23;;;0.67;;
39890;SDS011;25564;53.312;9.790;2024-03-29T14:18:57;2.00;;;0.90;;
39890;SDS011;25564;53.312;9.790;2024-03-29T14:21:27;2.40;;;0.80;;
39890;SDS011;25564;53.312;9.790;2024-03-29T14:23:58;0.93;;;0.67;;
39890;SDS011;25564;53.312;9.790;2024-03-29T14:26:28;2.47;;;0.77;;
39890;SDS011;25564;53.312;9.790;2024-03-29T14:28:58;1.20;;;0.63;;
39890;SDS011;25564;53.312;9.790;2024-03-29T14:31:29;2.07;;;1.30;;
39890;SDS011;25564;53.312;9.790;2024-03-29T14:34:00;2.47;;;1.10;;
39890;SDS011;25564;53.312;9.790;2024-03-29T14:36:30;2.20;;;1.20;;
39890;SDS011;25564;53.312;9.790;2024-03-29T14:39:04;2.67;;;1.17;;
39890;SDS011;25564;53.312;9.790;2024-03-29T14:41:35;0.77;;;0.70;;
39890;SDS011;25564;53.312;9.790;2024-03-29T14:44:07;1.37;;;0.80;;
39890;SDS011;25564;53.312;9.790;2024-03-29T14:46:38;1.77;;;0.90;;
39890;SDS011;25564;53.312;9.790;2024-03-29T14:49:09;2.47;;;0.90;;
39890;SDS011;25564;53.312;9.790;2024-03-29T14:51:42;2.37;;;1.23;;
39890;SDS011;25564;53.312;9.790;2024-03-29T14:54:12;1.80;;;0.83;;
39890;SDS011;25564;53.312;9.790;2024-03-29T14:56:43;1.90;;;0.93;;
39890;SDS011;25564;53.312;9.790;2024-03-29T14:59:13;2.13;;;1.30;;